< < Back
Terminal Aerodrome Forecast


Current Version              Previous Versions:   1  2  3  4  5  6  7  8  9  

Terminal Aerodrome Forecast

533
FTUS44 KMRX 201720
TAFTYS
TAF
KTYS 201720Z 2018/2118 00000KT P6SM SKC
     FM211400 24005KT P6SM BKN250=



Latest METAR

307
SAUS80 KWBC 202100
MTRTYS
METAR KTYS 202053Z 01007KT 10SM FEW250 24/04 A3014 RMK AO2 SLP200
T02390044 56022


USA.gov is the U.S. government's official web portal to all federal, state and local government web resources and services.